Flight Track Log - Related Links

Times and Time Zones

All times are in EDT time to prevent confusion due to time zone crossing. See the UCA3597 flight status page for this flight to view local times or setup timezone preferences in your user account.

Time Position Orientation Groundspeed Altitude Reporting Facility
EDT Latitude Longitude Course Direction KTS MPH feet Rate Location/Type
Sun 07:22:15 PM 42.1800 -75.9731 200° South 115 132 2,800  Level New York Center
Sun 07:23:15 PM 42.1503 -75.9875 200° South 139 160 3,700 1,050 Climbing New York Center
Sun 07:24:15 PM 42.1175 -76.0183 215° Southwest 152 175 4,900 1,250 Climbing New York Center
Sun 07:25:15 PM 42.0806 -76.0547 216° Southwest 158 182 6,200 1,300 Climbing New York Center
Sun 07:26:15 PM 42.0414 -76.0933 216° Southwest 164 189 7,500 900 Climbing New York Center
Sun 07:27:15 PM 42.0042 -76.1322 218° Southwest 176 203 8,000 250 Climbing New York Center
Sun 07:28:15 PM 41.9497 -76.1864 217° Southwest 216 249 8,000 700 Level New York Center
Sun 07:29:15 PM 41.9019 -76.2300 214° Southwest 222 255 9,400 1,300 Climbing New York Center
Sun 07:30:15 PM 41.8606 -76.2711 216° Southwest 215 247 10,600 800 Climbing New York Center
Sun 07:31:15 PM 41.8214 -76.3094 216° Southwest 199 229 11,000 250 Climbing New York Center
Sun 07:32:15 PM 41.7689 -76.3581 215° Southwest 216 249 11,100 450 Climbing New York Center
Sun 07:33:15 PM 41.7142 -76.4144 218° Southwest 229 264 11,900 900 Climbing New York Center
Sun 07:34:15 PM 41.6683 -76.4578 215° Southwest 223 257 12,900 1,050 Climbing New York Center
Sun 07:35:15 PM 41.6228 -76.5011 215° Southwest 217 250 14,000 1,000 Climbing New York Center
Sun 07:36:15 PM 41.5833 -76.5394 216° Southwest 207 238 14,900 1,000 Climbing New York Center
Sun 07:37:15 PM 41.5372 -76.5853 217° Southwest 207 238 16,000 550 Climbing New York Center
Sun 07:38:15 PM 41.4892 -76.6311 216° Southwest 207 238 16,000  Level New York Center
Sun 07:39:15 PM 41.4392 -76.6764 214° Southwest 217 250 16,000  Level New York Center
Sun 07:40:15 PM 41.3931 -76.7250 218° Southwest 230 265 16,000  Level New York Center
Sun 07:41:15 PM 41.3403 -76.7756 216° Southwest 235 270 16,000  Level New York Center
Sun 07:42:15 PM 41.2728 -76.7917 190° South 235 270 16,000  Level New York Center
Sun 07:43:15 PM 41.2097 -76.8056 189° South 235 270 16,000  Level New York Center
Sun 07:44:15 PM 41.1444 -76.8161 187° South 240 276 16,000  Level New York Center
Sun 07:45:15 PM 41.0792 -76.8297 189° South 240 276 16,000  Level New York Center
Sun 07:46:15 PM 41.0119 -76.8428 188° South 240 276 16,000  Level New York Center
Sun 07:47:15 PM 40.9406 -76.8558 188° South 240 276 16,000  Level New York Center
Sun 07:48:15 PM 40.8772 -76.8692 189° South 235 270 16,000  Level New York Center
Sun 07:49:15 PM 40.8119 -76.8828 189° South 240 276 16,000  Level New York Center
Sun 07:50:15 PM 40.7464 -76.8989 191° South 240 276 16,000  Level New York Center
Sun 07:51:15 PM 40.6808 -76.9203 194° South 240 276 16,000  Level New York Center
Sun 07:52:15 PM 40.6194 -76.9394 193° South 240 276 16,000  Level New York Center
Sun 07:53:15 PM 40.5558 -76.9583 193° South 240 276 16,000  Level New York Center
Sun 07:54:15 PM 40.4900 -76.9797 194° South 240 276 16,000 -426 Level New York Center
Sun 07:56:32 PM 40.3500 -77.0167 191° South 251 289 14,600 -739 Descending Potomac TRACON
Sun 07:57:38 PM 40.2667 -77.0500 197° South 259 298 13,500 -1,000 Descending Potomac TRACON
Sun 07:58:38 PM 40.2000 -77.0667 191° South 255 293 12,500 -1,000 Descending Potomac TRACON
Sun 07:59:38 PM 40.1333 -77.1000 201° Southwest 256 295 11,500 -1,000 Descending Potomac TRACON
Sun 08:00:38 PM 40.0667 -77.1333 201° Southwest 257 296 10,500 -1,000 Descending Potomac TRACON
Sun 08:01:44 PM 39.9833 -77.1667 197° South 246 283 9,400 -750 Descending Potomac TRACON
Sun 08:02:38 PM 39.9333 -77.1833 194° South 236 272 9,000 -211 Descending Potomac TRACON
Sun 08:03:38 PM 39.8667 -77.2167 201° Southwest 228 262 9,000 -350 Level Potomac TRACON
Sun 08:04:38 PM 39.8167 -77.2500 207° Southwest 234 269 8,300 -500 Descending Potomac TRACON
Sun 08:05:38 PM 39.7500 -77.2833 201° Southwest 229 264 8,000 -150 Descending Potomac TRACON
Sun 08:06:38 PM 39.7000 -77.3000 194° South 221 254 8,000 -500 Level Potomac TRACON
Sun 08:07:38 PM 39.6333 -77.3333 201° Southwest 227 261 7,000 -950 Descending Potomac TRACON
Sun 08:08:38 PM 39.5833 -77.3667 207° Southwest 234 269 6,100 -619 Descending Potomac TRACON
Sun 08:09:44 PM 39.5167 -77.4167 210° Southwest 229 264 5,700 -600 Descending Potomac TRACON
Sun 08:10:38 PM 39.4667 -77.4333 194° South 229 264 4,900 -850 Descending Potomac TRACON
Sun 08:11:44 PM 39.3833 -77.4333 180° South 225 259 4,000 -545 Descending Potomac TRACON
Sun 08:12:39 PM 39.3333 -77.4333 180° South 221 254 3,800 -526 Descending Potomac TRACON
Sun 08:13:38 PM 39.2833 -77.4333 180° South 225 259 3,000 -403 Descending Potomac TRACON
Sun 08:14:38 PM 39.2167 -77.4333 180° South 212 244 3,000  Level Potomac TRACON
Sun 08:15:39 PM 39.1667 -77.4333 180° South 211 243 3,000 -94 Level Potomac TRACON
Sun 08:16:45 PM 39.0833 -77.4333 180° South 214 246 2,800 -524 Descending Potomac TRACON
Sun 08:17:45 PM 39.0333 -77.4333 180° South 166 191 1,900 -842 Descending Potomac TRACON
Sun 08:18:39 PM 39.0000 -77.4333 180° South 140 161 1,200 -650 Descending Potomac TRACON
Sun 08:19:45 PM 38.9667 -77.4333 180° South 101 116 600 -545 Descending Potomac TRACON

Login

Don't have an account? Register now (free) for customized features, flight alerts, and more!